This is the latest recevied weather packets stored in our database for station/object OM3WYM-13. If no packets are shown the sender has not sent any weather packets the latest 10 day(s).
| Time | Temp. | Humidity | Pressure | Rain* | Wind** | Luminosity | Snow |
|---|---|---|---|---|---|---|---|
| 1777953608 | 4.44° C | 85% | 1016.4 hPa | - | - | - | - |
| 1777953008 | 4.44° C | 85% | 1016.4 hPa | - | - | - | - |
| 1777952408 | 4.44° C | 85% | 1016.4 hPa | - | - | - | - |
| 1777951808 | 4.44° C | 85% | 1016.3 hPa | - | - | - | - |
| 1777951208 | 4.44° C | 84% | 1016.3 hPa | - | - | - | - |
| 1777950608 | 4.44° C | 85% | 1016.3 hPa | - | - | - | - |
| 1777950008 | 4.44° C | 85% | 1016.4 hPa | - | - | - | - |
| 1777949408 | 4.44° C | 86% | 1016.3 hPa | - | - | - | - |
| 1777948808 | 3.89° C | 88% | 1016.5 hPa | - | - | - | - |
| 1777948208 | 3.89° C | 85% | 1016.3 hPa | - | - | - | - |
| 1777947608 | 4.44° C | 84% | 1016.3 hPa | - | - | - | - |
| 1777947008 | 4.44° C | 84% | 1016.4 hPa | - | - | - | - |
| 1777946408 | 4.44° C | 84% | 1016.3 hPa | - | - | - | - |
| 1777945808 | 4.44° C | 82% | 1016.4 hPa | - | - | - | - |
| 1777945208 | 4.44° C | 82% | 1016.4 hPa | - | - | - | - |
| 1777944608 | 5° C | 81% | 1016.4 hPa | - | - | - | - |
| 1777944008 | 5° C | 80% | 1016.4 hPa | - | - | - | - |
| 1777943408 | 5.56° C | 78% | 1016.3 hPa | - | - | - | - |
| 1777942808 | 5.56° C | 79% | 1016.5 hPa | - | - | - | - |
| 1777942208 | 5° C | 80% | 1016.5 hPa | - | - | - | - |
| 1777941609 | 5° C | 80% | 1016.5 hPa | - | - | - | - |
| 1777941009 | 5° C | 78% | 1016.5 hPa | - | - | - | - |
| 1777940408 | 5.56° C | 76% | 1016.6 hPa | - | - | - | - |
| 1777939808 | 6.11° C | 76% | 1016.5 hPa | - | - | - | - |
| 1777939208 | 5.56° C | 76% | 1016.6 hPa | - | - | - | - |
* Rain since midnight (hover to see other rain measurements)
** Current wind speed in m/s (hover to see current wind gust speed)